EW5448 Weather Reports


Display with metric or nautical units.
time (UTC)temp
F
wind
direction
speed
MPH
gust
MPH
rain 1hr
in
rain 24hr
in
rain mn
in
humidity
%
barometer
mb
20190425193145 98 202 5.0 9.0 0.00 0.00 0.00 13 997.0
20190425191636 96 166 1.0 10.0 0.00 0.00 0.00 14 997.3
20190425190227 96 144 0.0 4.0 0.00 0.00 0.00 15 997.4
20190425184642 95 146 0.0 5.0 0.00 0.00 0.00 15 997.6
20190425183157 95 159 3.0 7.0 0.00 0.00 0.00 15 997.9
20190425181610 93 245 0.0 6.0 0.00 0.00 0.00 17 998.0
20190425180144 92 258 2.0 8.0 0.00 0.00 0.00 18 998.1
20190425174639 91 281 1.0 2.0 0.00 0.00 0.00 19 998.2
20190425173117 89 139 1.0 4.0 0.00 0.00 0.00 20 998.2
20190425171528 88 55 0.0 1.0 0.00 0.00 0.00 21 998.2
20190425170042 86 52 0.0 1.0 0.00 0.00 0.00 21 998.3
20190425164526 85 196 0.0 2.0 0.00 0.00 0.00 21 998.3
20190425163022 83 202 0.0 2.0 0.00 0.00 0.00 23 998.3
20190425161531 81 204 0.0 1.0 0.00 0.00 0.00 25 998.3
20190425154504 78 205 0.0 2.0 0.00 0.00 0.00 28 998.1
20190425153151 77 175 0.0 4.0 0.00 0.00 0.00 28 998.1
20190425151649 76 185 0.0 4.0 0.00 0.00 0.00 28 998.0
20190425150151 75 165 1.0 4.0 0.00 0.00 0.00 29 998.0
20190425144715 74 141 0.0 4.0 0.00 0.00 0.00 31 997.9
20190425143151 72 153 1.0 4.0 0.00 0.00 0.00 33 997.8
20190425141702 69 146 0.0 1.0 0.00 0.00 0.00 37 997.7
20190425140238 66 163 0.0 0.0 0.00 0.00 0.00 43 997.7
20190425134619 64 142 0.0 0.0 0.00 0.00 0.00 47 997.4
20190425133211 64 142 0.0 0.0 0.00 0.00 0.00 47 997.1
20190425131628 65 142 0.0 0.0 0.00 0.00 0.00 45 997.0
20190425130115 66 142 0.0 0.0 0.00 0.00 0.00 43 996.7
20190425124614 67 142 0.0 0.0 0.00 0.00 0.00 41 996.6
20190425123109 67 142 0.0 0.0 0.00 0.00 0.00 41 996.5
20190425121555 68 142 0.0 0.0 0.00 0.00 0.00 39 996.3
20190425120056 68 142 0.0 0.0 0.00 0.00 0.00 38 996.3
20190425114555 69 142 0.0 0.0 0.00 0.00 0.00 36 996.1
20190425113042 70 142 0.0 0.0 0.00 0.00 0.00 34 996.1
20190425111547 72 142 0.0 0.0 0.00 0.00 0.00 33 996.0
20190425110036 72 142 0.0 0.0 0.00 0.00 0.00 32 995.9
20190425104553 72 141 0.0 0.0 0.00 0.00 0.00 32 995.8
20190425103047 72 136 1.0 4.0 0.00 0.00 0.00 31 995.6
20190425101537 72 136 1.0 5.0 0.00 0.00 0.00 32 995.6
20190425100053 71 129 0.0 2.0 0.00 0.00 0.00 33 995.5
20190425094624 71 136 0.0 1.0 0.00 0.00 0.00 34 995.4
20190425093044 71 133 0.0 2.0 0.00 0.00 0.00 34 995.5
20190425091547 71 54 0.0 0.0 0.00 0.00 0.00 35 995.3
20190425090030 71 54 0.0 1.0 0.00 0.00 0.00 36 995.2
20190425084529 71 51 0.0 2.0 0.00 0.00 0.00 38 995.5
20190425083023 73 36 0.0 0.0 0.00 0.00 0.00 37 995.4
20190425081517 73 36 0.0 1.0 0.00 0.00 0.00 31 995.4
20190425080014 74 37 0.0 1.0 0.00 0.00 0.00 30 995.4
20190425074512 74 36 0.0 0.0 0.00 0.00 0.00 31 995.4
20190425073005 76 36 0.0 0.0 0.00 0.00 0.00 29 995.7
20190425071720 76 36 0.0 0.0 0.00 0.00 0.00 28 995.6
20190425070238 77 36 0.0 0.0 0.00 0.00 0.00 27 995.5
20190425064649 78 36 0.0 0.0 0.00 0.00 0.00 26 995.5
20190425063140 79 36 0.0 0.0 0.00 0.00 0.00 25 995.4
20190425061731 79 36 0.0 1.0 0.00 0.00 0.00 25 995.2
20190425060143 79 36 0.0 0.0 0.00 0.00 0.00 24 995.2
20190425054654 81 36 0.0 2.0 0.00 0.00 0.00 22 995.1
20190425053146 81 96 0.0 1.0 0.00 0.00 0.00 22 995.1
20190425051555 81 97 0.0 0.0 0.00 0.00 0.00 23 995.1
20190425050156 82 97 0.0 0.0 0.00 0.00 0.00 22 995.0
20190425044654 82 97 0.0 2.0 0.00 0.00 0.00 22 994.9
20190425043244 83 96 0.0 0.0 0.00 0.00 0.00 23 994.8
20190425041634 84 96 0.0 0.0 0.00 0.00 0.00 23 994.7
20190425040230 85 83 0.0 0.0 0.00 0.00 0.00 23 994.4
20190425034646 86 83 0.0 0.0 0.00 0.00 0.00 23 994.3
20190425033136 88 83 0.0 0.0 0.00 0.00 0.00 22 994.0
20190425031630 89 83 0.0 0.0 0.00 0.00 0.00 21 994.0
20190425030139 91 83 0.0 0.0 0.00 0.00 0.00 17 993.9
20190425024702 93 83 0.0 0.0 0.00 0.00 0.00 17 993.5
20190425023128 95 83 0.0 0.0 0.00 0.00 0.00 16 993.4
20190425021723 96 85 0.0 2.0 0.00 0.00 0.00 14 993.3
20190425020124 97 87 0.0 0.0 0.00 0.00 0.00 14 993.2
20190425014632 97 87 0.0 0.0 0.00 0.00 0.00 13 993.1
20190425013130 98 87 0.0 2.0 0.00 0.00 0.00 12 993.0
20190425011608 98 86 0.0 2.0 0.00 0.00 0.00 12 993.1
20190425010119 98 86 0.0 5.0 0.00 0.00 0.00 12 993.1
20190425004611 99 306 0.0 4.0 0.00 0.00 0.00 12 993.2
20190425003104 99 342 0.0 2.0 0.00 0.00 0.00 12 993.4
20190425001634 99 355 2.0 7.0 0.00 0.00 0.00 12 993.5
20190425000158 99 319 1.0 5.0 0.00 0.00 0.00 11 993.6
20190424234613 99 31 0.0 5.0 0.00 0.00 0.00 12 993.7
20190424233043 99 298 3.0 8.0 0.00 0.00 0.00 12 993.7
20190424231706 100 290 2.0 7.0 0.00 0.00 0.00 11 993.8
20190424230117 99 42 1.0 5.0 0.00 0.00 0.00 12 993.9
20190424224619 99 336 1.0 7.0 0.00 0.00 0.00 12 994.1
20190424223112 99 38 0.0 5.0 0.00 0.00 0.00 12 994.3
20190424221550 99 296 4.0 9.0 0.00 0.00 0.00 12 994.5
20190424220101 98 265 2.0 10.0 0.00 0.00 0.00 13 994.8
20190424214557 98 297 4.0 8.0 0.00 0.00 0.00 13 995.1
20190424213030 98 278 2.0 9.0 0.00 0.00 0.00 13 995.5
20190424211548 98 253 3.0 9.0 0.00 0.00 0.00 13 995.8
20190424210012 98 283 1.0 9.0 0.00 0.00 0.00 12 996.1
20190424204513 98 257 2.0 8.0 0.00 0.00 0.00 12 996.3
20190424203010 98 355 0.0 4.0 0.00 0.00 0.00 13 996.4
20190424201503 96 299 2.0 8.0 0.00 0.00 0.00 13 996.8
20190424200153 95 338 0.0 8.0 0.00 0.00 0.00 13 997.0
20190424194648 94 309 2.0 13.0 0.00 0.00 0.00 14 997.2